createdAt,value
2022-11-03T00:01:07.450Z,53.50
2022-11-03T00:07:31.716Z,53.33
2022-11-03T00:13:56.230Z,53.52
2022-11-03T00:20:20.684Z,53.52
2022-11-03T00:26:37.761Z,53.49
2022-11-03T00:33:02.096Z,53.30
2022-11-03T00:39:26.392Z,53.52
2022-11-03T00:45:50.743Z,53.42
2022-11-03T00:52:21.041Z,53.50
2022-11-03T00:58:45.397Z,53.49
2022-11-03T01:05:08.391Z,53.45
2022-11-03T01:11:31.340Z,53.55
2022-11-03T01:17:55.783Z,53.45
2022-11-03T01:24:20.289Z,53.64
2022-11-03T01:30:38.532Z,53.56
2022-11-03T01:37:03.323Z,53.30
2022-11-03T01:43:27.687Z,53.23
2022-11-03T01:49:55.223Z,53.24
2022-11-03T01:56:19.594Z,52.87
2022-11-03T02:02:43.914Z,52.68
2022-11-03T02:09:17.448Z,52.09
2022-11-03T02:15:41.770Z,52.07
2022-11-03T02:22:09.179Z,51.61
2022-11-03T02:28:33.647Z,51.38
2022-11-03T02:35:12.955Z,51.10
2022-11-03T02:41:37.722Z,50.82
2022-11-03T02:48:03.051Z,50.72
2022-11-03T02:54:27.239Z,50.42
2022-11-03T03:00:54.373Z,50.36
2022-11-03T03:07:18.768Z,50.01
2022-11-03T03:13:43.184Z,50.04
2022-11-03T03:20:22.450Z,50.11
2022-11-03T03:26:49.471Z,49.78
2022-11-03T03:33:13.943Z,49.90
2022-11-03T03:39:38.526Z,49.84
2022-11-03T03:46:02.810Z,49.71
2022-11-03T03:52:27.263Z,49.53
2022-11-03T03:58:52.123Z,49.64
2022-11-03T04:05:09.088Z,49.72
2022-11-03T04:11:31.960Z,49.65
2022-11-03T04:17:55.658Z,49.71
2022-11-03T04:24:23.105Z,49.63
2022-11-03T04:30:53.416Z,49.77
2022-11-03T04:37:16.036Z,49.63
2022-11-03T04:43:40.442Z,49.73
2022-11-03T04:50:04.815Z,49.70
2022-11-03T04:56:29.114Z,49.68
2022-11-03T05:02:56.591Z,49.72
2022-11-03T05:09:21.147Z,49.85
2022-11-03T05:15:45.554Z,49.94
2022-11-03T05:22:09.957Z,49.98
2022-11-03T05:28:34.386Z,49.93
2022-11-03T05:35:07.495Z,49.98
2022-11-03T05:41:31.795Z,50.15
2022-11-03T05:48:01.809Z,50.05
2022-11-03T05:54:32.533Z,50.15
2022-11-03T06:01:09.069Z,50.03
2022-11-03T06:07:31.911Z,50.27
2022-11-03T06:14:05.012Z,50.18
2022-11-03T06:20:38.359Z,50.28
2022-11-03T06:27:05.419Z,50.27
2022-11-03T06:33:29.817Z,50.31
2022-11-03T06:39:54.210Z,50.23
2022-11-03T06:46:27.306Z,50.15
2022-11-03T06:52:49.917Z,50.29
2022-11-03T06:59:14.281Z,50.21
2022-11-03T07:05:38.615Z,50.29
2022-11-03T07:12:21.296Z,50.22
2022-11-03T07:18:46.001Z,50.28
2022-11-03T07:25:22.010Z,50.48
2022-11-03T07:31:55.244Z,50.43
2022-11-03T07:38:19.624Z,50.44
2022-11-03T07:44:44.001Z,50.61
2022-11-03T07:51:08.750Z,50.58
2022-11-03T07:57:45.164Z,50.47
2022-11-03T08:04:09.631Z,50.50
2022-11-03T08:10:33.915Z,50.78
2022-11-03T08:16:58.279Z,50.70
2022-11-03T08:23:26.492Z,50.89
2022-11-03T08:29:51.318Z,50.70
2022-11-03T08:36:15.591Z,50.71
2022-11-03T08:42:39.949Z,51.01
2022-11-03T08:49:04.524Z,50.96
2022-11-03T08:55:29.000Z,51.04
2022-11-03T09:01:53.504Z,50.93
2022-11-03T09:15:02.266Z,51.03
2022-11-03T09:21:26.565Z,51.02
2022-11-03T09:27:50.865Z,50.98
2022-11-03T09:34:15.168Z,51.16
2022-11-03T09:40:39.792Z,51.30
2022-11-03T09:47:04.244Z,51.11
2022-11-03T09:53:28.647Z,51.15
2022-11-03T09:59:58.776Z,51.18
2022-11-03T10:06:26.042Z,51.12
2022-11-03T10:12:50.440Z,51.23
2022-11-03T10:19:14.791Z,51.44
2022-11-03T10:25:37.374Z,51.32
2022-11-03T10:32:01.848Z,51.30
2022-11-03T10:38:26.392Z,51.33
2022-11-03T10:44:59.981Z,51.34
2022-11-03T10:51:24.440Z,51.27
2022-11-03T10:57:52.838Z,51.20
2022-11-03T11:04:17.646Z,51.46
2022-11-03T11:10:48.216Z,51.39
2022-11-03T11:17:34.077Z,51.51
2022-11-03T11:24:10.332Z,51.27
2022-11-03T11:30:34.626Z,51.44
2022-11-03T11:37:01.778Z,51.53
2022-11-03T11:43:44.055Z,51.25
2022-11-03T11:50:08.409Z,51.44
2022-11-03T11:56:32.820Z,51.24
2022-11-03T12:02:57.366Z,51.31
2022-11-03T12:09:22.014Z,51.37
2022-11-03T12:15:46.540Z,51.28
2022-11-03T12:22:25.788Z,51.32
2022-11-03T12:28:50.405Z,51.19
2022-11-03T12:35:14.678Z,51.37
2022-11-03T12:41:41.994Z,51.28
2022-11-03T12:48:14.648Z,51.31
2022-11-03T12:54:39.087Z,51.22
2022-11-03T13:01:03.612Z,51.23
2022-11-03T13:07:34.355Z,51.10
2022-11-03T13:13:59.182Z,51.23
2022-11-03T13:20:23.600Z,51.29
2022-11-03T13:26:48.014Z,51.16
2022-11-03T13:33:12.320Z,51.26
2022-11-03T13:39:36.964Z,51.32
2022-11-03T13:46:01.493Z,51.20
2022-11-03T13:52:25.823Z,51.24
2022-11-03T14:05:34.551Z,51.37
2022-11-03T14:12:08.213Z,51.37
2022-11-03T14:18:32.624Z,51.42
2022-11-03T14:24:56.931Z,51.49
2022-11-03T14:31:21.342Z,51.45
2022-11-03T14:37:45.893Z,51.63
2022-11-03T14:44:10.360Z,51.61
2022-11-03T14:50:34.719Z,51.68
2022-11-03T14:56:59.129Z,51.69
2022-11-03T15:03:23.600Z,51.89
2022-11-03T15:09:48.017Z,51.91
2022-11-03T15:16:12.360Z,52.01
2022-11-03T15:29:20.908Z,52.19
2022-11-03T15:35:45.259Z,52.10
2022-11-03T15:42:09.566Z,51.97
2022-11-03T15:48:34.757Z,52.00
2022-11-03T15:54:59.168Z,52.26
2022-11-03T16:01:23.770Z,52.30
2022-11-03T16:07:48.321Z,52.28
2022-11-03T16:14:13.272Z,52.29
2022-11-03T16:20:37.675Z,52.48
2022-11-03T16:27:01.979Z,52.30
2022-11-03T16:33:26.394Z,52.29
2022-11-03T16:39:50.690Z,52.51
2022-11-03T16:46:15.116Z,52.57
2022-11-03T16:52:39.446Z,52.52
2022-11-03T16:59:04.271Z,52.42
2022-11-03T17:05:28.657Z,52.63
2022-11-03T17:11:58.324Z,52.55
2022-11-03T17:18:22.587Z,52.48
2022-11-03T17:24:47.022Z,52.58
2022-11-03T17:31:11.417Z,52.66
2022-11-03T17:37:35.765Z,52.50
2022-11-03T17:44:00.150Z,52.49
2022-11-03T17:50:24.538Z,52.69
2022-11-03T17:56:48.810Z,52.69
2022-11-03T18:03:13.216Z,52.72
2022-11-03T18:09:37.583Z,52.57
2022-11-03T18:16:04.866Z,52.57
2022-11-03T18:22:29.207Z,52.61
2022-11-03T18:28:53.879Z,52.84
2022-11-03T18:35:18.627Z,52.83
2022-11-03T18:42:01.490Z,52.72
2022-11-03T18:48:25.875Z,52.46
2022-11-03T18:54:51.271Z,52.07
2022-11-03T19:01:18.865Z,51.87
2022-11-03T19:07:44.883Z,51.74
2022-11-03T19:14:09.171Z,51.41
2022-11-03T19:20:33.613Z,50.96
2022-11-03T19:27:00.989Z,50.80
2022-11-03T19:33:25.364Z,50.70
2022-11-03T19:39:58.553Z,50.47
2022-11-03T19:46:22.924Z,50.49
2022-11-03T19:52:47.644Z,50.09
2022-11-03T19:59:14.795Z,49.93
2022-11-03T20:05:39.202Z,49.73
2022-11-03T20:12:03.518Z,49.48
2022-11-03T20:18:27.862Z,49.47
2022-11-03T20:24:52.257Z,49.44
2022-11-03T20:31:16.640Z,49.33
2022-11-03T20:37:40.993Z,49.19
2022-11-03T20:44:11.450Z,49.14
2022-11-03T20:50:36.057Z,49.04
2022-11-03T20:57:00.405Z,49.02
2022-11-03T21:03:45.118Z,49.03
2022-11-03T21:10:14.532Z,49.16
2022-11-03T21:16:40.255Z,49.10
2022-11-03T21:23:04.656Z,48.96
2022-11-03T21:29:53.357Z,48.99
2022-11-03T21:36:13.215Z,49.03
2022-11-03T21:42:36.040Z,49.02
2022-11-03T21:48:58.945Z,49.12
2022-11-03T21:55:23.372Z,49.13
2022-11-03T22:01:47.788Z,49.15
2022-11-03T22:08:12.277Z,49.40
2022-11-03T22:14:36.594Z,49.36
2022-11-03T22:20:59.506Z,49.39
2022-11-03T22:27:23.854Z,49.58
2022-11-03T22:33:51.099Z,49.72
2022-11-03T22:40:13.980Z,49.59
2022-11-03T22:46:38.597Z,49.59
2022-11-03T22:53:02.852Z,49.80
2022-11-03T22:59:27.215Z,49.73
2022-11-03T23:05:51.638Z,49.81
2022-11-03T23:12:16.114Z,49.91
2022-11-03T23:18:45.995Z,49.91
2022-11-03T23:25:22.600Z,49.88
2022-11-03T23:31:46.983Z,49.87
2022-11-03T23:38:11.406Z,50.11
2022-11-03T23:44:36.054Z,49.96
2022-11-03T23:51:00.430Z,50.28
2022-11-03T23:57:15.793Z,50.35
